sensor_id;sensor_type;location;lat;lon;timestamp;pressure;altitude;pressure_sealevel;temperature;humidity
17072;BME280;7731;50.720;6.912;2022-08-20T00:02:16;100053.09;;;20.63;100.00
17072;BME280;7731;50.720;6.912;2022-08-20T00:04:47;100065.03;;;20.65;100.00
17072;BME280;7731;50.720;6.912;2022-08-20T00:07:17;100059.22;;;20.34;100.00
17072;BME280;7731;50.720;6.912;2022-08-20T00:09:48;100049.66;;;19.86;100.00
17072;BME280;7731;50.720;6.912;2022-08-20T00:12:19;100049.09;;;19.92;100.00
17072;BME280;7731;50.720;6.912;2022-08-20T00:14:49;100048.81;;;19.95;100.00
17072;BME280;7731;50.720;6.912;2022-08-20T00:17:24;100046.34;;;19.64;100.00
17072;BME280;7731;50.720;6.912;2022-08-20T00:19:57;100048.25;;;19.62;100.00
17072;BME280;7731;50.720;6.912;2022-08-20T00:22:28;100048.53;;;19.59;100.00
17072;BME280;7731;50.720;6.912;2022-08-20T00:24:58;100045.25;;;19.57;100.00
17072;BME280;7731;50.720;6.912;2022-08-20T00:27:29;100048.25;;;19.62;100.00
17072;BME280;7731;50.720;6.912;2022-08-20T00:30:00;100045.81;;;19.51;100.00
17072;BME280;7731;50.720;6.912;2022-08-20T00:32:42;100045.81;;;19.51;100.00
17072;BME280;7731;50.720;6.912;2022-08-20T00:35:15;100055.13;;;19.73;100.00
17072;BME280;7731;50.720;6.912;2022-08-20T00:37:49;100052.09;;;19.58;100.00
17072;BME280;7731;50.720;6.912;2022-08-20T00:40:32;100059.19;;;19.36;100.00
17072;BME280;7731;50.720;6.912;2022-08-20T00:43:07;100051.56;;;19.44;100.00
17072;BME280;7731;50.720;6.912;2022-08-20T00:45:52;100055.50;;;19.29;100.00
17072;BME280;7731;50.720;6.912;2022-08-20T00:48:30;100061.59;;;19.08;100.00
17072;BME280;7731;50.720;6.912;2022-08-20T00:51:06;100050.41;;;19.18;100.00
17072;BME280;7731;50.720;6.912;2022-08-20T00:53:38;100052.59;;;19.13;100.00
17072;BME280;7731;50.720;6.912;2022-08-20T00:56:12;100054.72;;;18.98;100.00
17072;BME280;7731;50.720;6.912;2022-08-20T00:58:44;100059.00;;;19.08;100.00
17072;BME280;7731;50.720;6.912;2022-08-20T01:01:17;100053.72;;;18.89;100.00
17072;BME280;7731;50.720;6.912;2022-08-20T01:03:52;100059.44;;;19.14;100.00
17072;BME280;7731;50.720;6.912;2022-08-20T01:06:23;100056.84;;;19.14;100.00
17072;BME280;7731;50.720;6.912;2022-08-20T01:08:55;100053.66;;;19.00;100.00
17072;BME280;7731;50.720;6.912;2022-08-20T01:11:32;100049.53;;;18.77;100.00
17072;BME280;7731;50.720;6.912;2022-08-20T01:14:11;100051.88;;;18.80;100.00
17072;BME280;7731;50.720;6.912;2022-08-20T01:16:59;100044.56;;;18.85;100.00
17072;BME280;7731;50.720;6.912;2022-08-20T01:19:37;100046.19;;;18.86;100.00
17072;BME280;7731;50.720;6.912;2022-08-20T01:22:09;100038.19;;;18.78;100.00
17072;BME280;7731;50.720;6.912;2022-08-20T01:25:03;100040.44;;;18.61;100.00
17072;BME280;7731;50.720;6.912;2022-08-20T01:27:42;100029.44;;;18.48;100.00
17072;BME280;7731;50.720;6.912;2022-08-20T01:30:19;100038.78;;;18.29;100.00
17072;BME280;7731;50.720;6.912;2022-08-20T01:32:49;100035.22;;;18.30;100.00
17072;BME280;7731;50.720;6.912;2022-08-20T01:35:22;100029.75;;;18.33;100.00
17072;BME280;7731;50.720;6.912;2022-08-20T01:37:53;100034.28;;;18.31;100.00
17072;BME280;7731;50.720;6.912;2022-08-20T01:43:40;100032.69;;;18.19;100.00
17072;BME280;7731;50.720;6.912;2022-08-20T01:46:12;100033.59;;;18.29;100.00
17072;BME280;7731;50.720;6.912;2022-08-20T01:48:45;100036.13;;;18.19;100.00
17072;BME280;7731;50.720;6.912;2022-08-20T01:51:20;100039.56;;;18.20;100.00
17072;BME280;7731;50.720;6.912;2022-08-20T01:53:55;100032.75;;;18.29;100.00
17072;BME280;7731;50.720;6.912;2022-08-20T01:56:29;100037.38;;;18.25;100.00
17072;BME280;7731;50.720;6.912;2022-08-20T01:59:05;100043.88;;;18.31;100.00
17072;BME280;7731;50.720;6.912;2022-08-20T02:01:38;100040.41;;;18.30;100.00
17072;BME280;7731;50.720;6.912;2022-08-20T02:04:15;100040.94;;;18.24;100.00
17072;BME280;7731;50.720;6.912;2022-08-20T02:06:49;100028.91;;;18.23;100.00
17072;BME280;7731;50.720;6.912;2022-08-20T02:09:25;100031.94;;;18.28;100.00
17072;BME280;7731;50.720;6.912;2022-08-20T02:11:57;100022.75;;;18.55;100.00
17072;BME280;7731;50.720;6.912;2022-08-20T02:14:33;100025.53;;;18.63;100.00
17072;BME280;7731;50.720;6.912;2022-08-20T02:17:04;100025.03;;;18.79;100.00
17072;BME280;7731;50.720;6.912;2022-08-20T02:19:40;100028.31;;;18.71;100.00
17072;BME280;7731;50.720;6.912;2022-08-20T02:22:20;100026.63;;;18.61;100.00
17072;BME280;7731;50.720;6.912;2022-08-20T02:24:53;100026.50;;;18.41;100.00
17072;BME280;7731;50.720;6.912;2022-08-20T02:27:24;100029.59;;;18.56;100.00
17072;BME280;7731;50.720;6.912;2022-08-20T02:29:57;100028.97;;;18.73;100.00
17072;BME280;7731;50.720;6.912;2022-08-20T02:32:27;100030.13;;;18.50;100.00
17072;BME280;7731;50.720;6.912;2022-08-20T02:35:01;100025.97;;;18.37;100.00
17072;BME280;7731;50.720;6.912;2022-08-20T02:37:36;100029.00;;;18.43;100.00
17072;BME280;7731;50.720;6.912;2022-08-20T02:40:12;100040.63;;;18.38;100.00
17072;BME280;7731;50.720;6.912;2022-08-20T02:42:54;100039.06;;;18.26;100.00
17072;BME280;7731;50.720;6.912;2022-08-20T02:45:28;100038.84;;;18.18;100.00
17072;BME280;7731;50.720;6.912;2022-08-20T02:48:03;100036.69;;;18.02;100.00
17072;BME280;7731;50.720;6.912;2022-08-20T02:50:34;100050.31;;;17.94;100.00
17072;BME280;7731;50.720;6.912;2022-08-20T02:53:04;100048.25;;;18.09;100.00
17072;BME280;7731;50.720;6.912;2022-08-20T02:55:34;100041.44;;;18.18;100.00
17072;BME280;7731;50.720;6.912;2022-08-20T02:58:05;100048.81;;;18.13;100.00
17072;BME280;7731;50.720;6.912;2022-08-20T03:00:38;100042.72;;;18.02;100.00
17072;BME280;7731;50.720;6.912;2022-08-20T03:03:10;100044.88;;;17.97;100.00
17072;BME280;7731;50.720;6.912;2022-08-20T03:05:43;100041.13;;;18.11;100.00
17072;BME280;7731;50.720;6.912;2022-08-20T03:08:14;100042.53;;;18.15;100.00
17072;BME280;7731;50.720;6.912;2022-08-20T03:10:46;100045.63;;;18.30;100.00
17072;BME280;7731;50.720;6.912;2022-08-20T03:13:19;100046.09;;;18.35;100.00
17072;BME280;7731;50.720;6.912;2022-08-20T03:15:56;100043.22;;;18.38;100.00
17072;BME280;7731;50.720;6.912;2022-08-20T03:18:31;100035.59;;;18.47;100.00
17072;BME280;7731;50.720;6.912;2022-08-20T03:21:06;100030.03;;;18.61;100.00
17072;BME280;7731;50.720;6.912;2022-08-20T03:23:41;100035.69;;;18.35;100.00
17072;BME280;7731;50.720;6.912;2022-08-20T03:26:12;100033.59;;;18.29;100.00
17072;BME280;7731;50.720;6.912;2022-08-20T03:28:44;100032.69;;;18.19;100.00
17072;BME280;7731;50.720;6.912;2022-08-20T03:31:18;100042.16;;;18.20;100.00
17072;BME280;7731;50.720;6.912;2022-08-20T03:33:48;100048.09;;;18.32;100.00
17072;BME280;7731;50.720;6.912;2022-08-20T03:36:20;100052.75;;;18.28;100.00
17072;BME280;7731;50.720;6.912;2022-08-20T03:38:56;100042.34;;;18.28;100.00
17072;BME280;7731;50.720;6.912;2022-08-20T03:41:26;100046.84;;;18.26;100.00
17072;BME280;7731;50.720;6.912;2022-08-20T03:43:58;100041.41;;;18.29;100.00
17072;BME280;7731;50.720;6.912;2022-08-20T03:46:31;100040.94;;;18.24;100.00
17072;BME280;7731;50.720;6.912;2022-08-20T03:49:02;100042.72;;;18.24;100.00
17072;BME280;7731;50.720;6.912;2022-08-20T03:51:33;100047.53;;;18.28;100.00
17072;BME280;7731;50.720;6.912;2022-08-20T03:54:23;100044.00;;;18.29;100.00
17072;BME280;7731;50.720;6.912;2022-08-20T03:57:00;100040.63;;;18.38;100.00
17072;BME280;7731;50.720;6.912;2022-08-20T03:59:39;100043.34;;;18.37;100.00
17072;BME280;7731;50.720;6.912;2022-08-20T04:02:12;100033.34;;;18.32;100.00
17072;BME280;7731;50.720;6.912;2022-08-20T04:04:43;100036.75;;;18.33;100.00
17072;BME280;7731;50.720;6.912;2022-08-20T04:07:17;100039.66;;;18.39;100.00
17072;BME280;7731;50.720;6.912;2022-08-20T04:09:52;100031.97;;;18.38;100.00
17072;BME280;7731;50.720;6.912;2022-08-20T04:12:24;100029.50;;;18.36;100.00
17072;BME280;7731;50.720;6.912;2022-08-20T04:14:54;100035.56;;;18.37;100.00
17072;BME280;7731;50.720;6.912;2022-08-20T04:17:32;100044.03;;;18.39;100.00
17072;BME280;7731;50.720;6.912;2022-08-20T04:20:07;100038.03;;;18.38;100.00
17072;BME280;7731;50.720;6.912;2022-08-20T04:22:38;100038.28;;;18.35;100.00
17072;BME280;7731;50.720;6.912;2022-08-20T04:25:24;100035.41;;;18.38;100.00
17072;BME280;7731;50.720;6.912;2022-08-20T04:27:57;100051.41;;;18.34;100.00
17072;BME280;7731;50.720;6.912;2022-08-20T04:30:29;100043.41;;;18.26;100.00
17072;BME280;7731;50.720;6.912;2022-08-20T04:33:02;100050.56;;;18.33;100.00
17072;BME280;7731;50.720;6.912;2022-08-20T04:35:33;100054.28;;;18.31;100.00
17072;BME280;7731;50.720;6.912;2022-08-20T04:38:07;100058.13;;;18.36;100.00
17072;BME280;7731;50.720;6.912;2022-08-20T04:40:37;100059.38;;;18.42;100.00
17072;BME280;7731;50.720;6.912;2022-08-20T04:43:21;100053.81;;;18.47;100.00
17072;BME280;7731;50.720;6.912;2022-08-20T04:45:53;100060.16;;;18.54;100.00
17072;BME280;7731;50.720;6.912;2022-08-20T04:48:27;100064.22;;;18.78;100.00
17072;BME280;7731;50.720;6.912;2022-08-20T04:50:58;100064.44;;;18.65;100.00
17072;BME280;7731;50.720;6.912;2022-08-20T04:53:30;100066.91;;;18.66;100.00
17072;BME280;7731;50.720;6.912;2022-08-20T04:56:02;100068.91;;;18.84;100.00
17072;BME280;7731;50.720;6.912;2022-08-20T04:58:37;100074.75;;;18.76;100.00
17072;BME280;7731;50.720;6.912;2022-08-20T05:01:14;100085.03;;;18.78;100.00
17072;BME280;7731;50.720;6.912;2022-08-20T05:03:47;100073.94;;;18.97;100.00
17072;BME280;7731;50.720;6.912;2022-08-20T05:06:24;100085.72;;;19.01;100.00
17072;BME280;7731;50.720;6.912;2022-08-20T05:08:57;100087.03;;;18.95;100.00
17072;BME280;7731;50.720;6.912;2022-08-20T05:11:29;100084.50;;;18.84;100.00
17072;BME280;7731;50.720;6.912;2022-08-20T05:14:06;100097.91;;;18.79;100.00
17072;BME280;7731;50.720;6.912;2022-08-20T05:16:39;100102.06;;;18.82;100.00
17072;BME280;7731;50.720;6.912;2022-08-20T05:19:12;100104.03;;;18.68;100.00
17072;BME280;7731;50.720;6.912;2022-08-20T05:21:44;100108.56;;;18.66;100.00
17072;BME280;7731;50.720;6.912;2022-08-20T05:24:14;100107.44;;;18.69;100.00
17072;BME280;7731;50.720;6.912;2022-08-20T05:26:45;100113.28;;;18.82;100.00
17072;BME280;7731;50.720;6.912;2022-08-20T05:29:15;100108.28;;;18.69;100.00
17072;BME280;7731;50.720;6.912;2022-08-20T05:31:46;100111.84;;;18.68;100.00
17072;BME280;7731;50.720;6.912;2022-08-20T05:34:19;100108.56;;;18.66;100.00
17072;BME280;7731;50.720;6.912;2022-08-20T05:36:50;100116.03;;;18.60;100.00
17072;BME280;7731;50.720;6.912;2022-08-20T05:39:22;100120.59;;;18.67;100.00
17072;BME280;7731;50.720;6.912;2022-08-20T05:41:54;100121.69;;;18.65;100.00
17072;BME280;7731;50.720;6.912;2022-08-20T05:44:25;100125.03;;;18.77;100.00
17072;BME280;7731;50.720;6.912;2022-08-20T05:46:56;100116.56;;;18.84;100.00
17072;BME280;7731;50.720;6.912;2022-08-20T05:49:33;100119.91;;;18.86;100.00
17072;BME280;7731;50.720;6.912;2022-08-20T05:52:05;100124.06;;;18.78;100.00
17072;BME280;7731;50.720;6.912;2022-08-20T05:54:36;100119.94;;;18.75;100.00
17072;BME280;7731;50.720;6.912;2022-08-20T05:57:07;100120.13;;;19.04;100.00
17072;BME280;7731;50.720;6.912;2022-08-20T05:59:37;100127.72;;;18.65;100.00
17072;BME280;7731;50.720;6.912;2022-08-20T06:02:08;100118.06;;;18.77;100.00
17072;BME280;7731;50.720;6.912;2022-08-20T06:05:01;100129.22;;;18.89;100.00
17072;BME280;7731;50.720;6.912;2022-08-20T06:07:29;100130.47;;;18.73;100.00
17072;BME280;7731;50.720;6.912;2022-08-20T06:10:00;100131.75;;;19.00;100.00
17072;BME280;7731;50.720;6.912;2022-08-20T06:12:30;100126.91;;;19.17;100.00
17072;BME280;7731;50.720;6.912;2022-08-20T06:15:01;100134.44;;;18.89;100.00
17072;BME280;7731;50.720;6.912;2022-08-20T06:17:32;100136.19;;;19.09;100.00
17072;BME280;7731;50.720;6.912;2022-08-20T06:20:10;100133.38;;;19.32;100.00
17072;BME280;7731;50.720;6.912;2022-08-20T06:22:42;100138.25;;;19.66;100.00
17072;BME280;7731;50.720;6.912;2022-08-20T06:25:12;100135.47;;;19.58;100.00
17072;BME280;7731;50.720;6.912;2022-08-20T06:27:43;100132.78;;;19.69;100.00
17072;BME280;7731;50.720;6.912;2022-08-20T06:30:15;100137.81;;;19.61;100.00
17072;BME280;7731;50.720;6.912;2022-08-20T06:32:45;100136.97;;;19.41;100.00
17072;BME280;7731;50.720;6.912;2022-08-20T06:35:19;100138.91;;;19.49;100.00
17072;BME280;7731;50.720;6.912;2022-08-20T06:37:50;100147.97;;;19.64;100.00
17072;BME280;7731;50.720;6.912;2022-08-20T06:40:24;100148.97;;;19.63;100.00
17072;BME280;7731;50.720;6.912;2022-08-20T06:42:56;100151.13;;;19.58;100.00
17072;BME280;7731;50.720;6.912;2022-08-20T06:45:31;100150.94;;;19.80;100.00
17072;BME280;7731;50.720;6.912;2022-08-20T06:48:09;100158.41;;;19.64;100.00
17072;BME280;7731;50.720;6.912;2022-08-20T06:50:46;100144.28;;;19.76;100.00
17072;BME280;7731;50.720;6.912;2022-08-20T06:53:19;100149.97;;;19.82;100.00
17072;BME280;7731;50.720;6.912;2022-08-20T06:55:52;100150.50;;;19.95;100.00
17072;BME280;7731;50.720;6.912;2022-08-20T06:58:23;100161.53;;;20.95;95.53
17072;BME280;7731;50.720;6.912;2022-08-20T07:01:05;100159.28;;;20.72;97.49
17072;BME280;7731;50.720;6.912;2022-08-20T07:03:37;100152.38;;;22.10;93.02
17072;BME280;7731;50.720;6.912;2022-08-20T07:06:24;100158.13;;;21.77;91.37
17072;BME280;7731;50.720;6.912;2022-08-20T07:08:55;100153.69;;;22.06;88.35
17072;BME280;7731;50.720;6.912;2022-08-20T07:11:27;100151.91;;;22.69;82.21
17072;BME280;7731;50.720;6.912;2022-08-20T07:14:16;100159.03;;;21.50;87.99
17072;BME280;7731;50.720;6.912;2022-08-20T07:16:55;100152.59;;;23.40;79.01
17072;BME280;7731;50.720;6.912;2022-08-20T07:19:57;100150.53;;;24.91;71.22
17072;BME280;7731;50.720;6.912;2022-08-20T07:22:48;100146.97;;;25.78;63.70
17072;BME280;7731;50.720;6.912;2022-08-20T07:25:23;100157.97;;;24.47;67.67
17072;BME280;7731;50.720;6.912;2022-08-20T07:27:59;100158.28;;;24.60;68.34
17072;BME280;7731;50.720;6.912;2022-08-20T07:30:30;100150.47;;;25.47;62.70
17072;BME280;7731;50.720;6.912;2022-08-20T07:33:23;100154.59;;;26.19;57.86
17072;BME280;7731;50.720;6.912;2022-08-20T07:35:56;100143.78;;;27.12;53.04
17072;BME280;7731;50.720;6.912;2022-08-20T07:38:31;100144.69;;;27.92;50.72
17072;BME280;7731;50.720;6.912;2022-08-20T07:41:09;100149.06;;;29.33;46.88
17072;BME280;7731;50.720;6.912;2022-08-20T07:43:42;100144.94;;;28.19;48.81
17072;BME280;7731;50.720;6.912;2022-08-20T07:46:18;100165.41;;;26.25;56.57
17072;BME280;7731;50.720;6.912;2022-08-20T07:48:58;100175.22;;;25.61;57.56
17072;BME280;7731;50.720;6.912;2022-08-20T07:51:31;100176.22;;;25.21;60.10
17072;BME280;7731;50.720;6.912;2022-08-20T07:54:05;100172.88;;;25.35;61.13
17072;BME280;7731;50.720;6.912;2022-08-20T07:56:39;100167.50;;;24.15;64.50
17072;BME280;7731;50.720;6.912;2022-08-20T07:59:09;100167.00;;;24.19;63.55
17072;BME280;7731;50.720;6.912;2022-08-20T08:01:40;100171.06;;;24.80;62.00
17072;BME280;7731;50.720;6.912;2022-08-20T08:04:10;100168.81;;;24.60;62.89
17072;BME280;7731;50.720;6.912;2022-08-20T08:06:40;100165.97;;;29.32;47.05
17072;BME280;7731;50.720;6.912;2022-08-20T08:09:13;100163.06;;;30.02;42.94
17072;BME280;7731;50.720;6.912;2022-08-20T08:11:47;100169.84;;;28.38;47.43
17072;BME280;7731;50.720;6.912;2022-08-20T08:14:22;100171.69;;;27.73;51.06
17072;BME280;7731;50.720;6.912;2022-08-20T08:16:59;100172.75;;;27.57;50.36
17072;BME280;7731;50.720;6.912;2022-08-20T08:19:37;100188.31;;;25.46;59.34
17072;BME280;7731;50.720;6.912;2022-08-20T08:22:11;100178.22;;;25.10;60.87
17072;BME280;7731;50.720;6.912;2022-08-20T08:24:46;100179.47;;;24.58;62.97
17072;BME280;7731;50.720;6.912;2022-08-20T08:27:24;100186.69;;;25.37;61.18
17072;BME280;7731;50.720;6.912;2022-08-20T08:29:59;100177.16;;;26.75;53.52
17072;BME280;7731;50.720;6.912;2022-08-20T08:32:30;100170.59;;;25.24;58.66
17072;BME280;7731;50.720;6.912;2022-08-20T08:35:08;100180.16;;;25.17;58.78
17072;BME280;7731;50.720;6.912;2022-08-20T08:37:38;100186.88;;;25.67;59.32
17072;BME280;7731;50.720;6.912;2022-08-20T08:40:11;100175.91;;;26.86;53.33
17072;BME280;7731;50.720;6.912;2022-08-20T08:42:46;100185.41;;;25.33;59.34
17072;BME280;7731;50.720;6.912;2022-08-20T08:45:24;100178.44;;;27.24;53.47
17072;BME280;7731;50.720;6.912;2022-08-20T08:47:57;100187.41;;;25.14;60.24
17072;BME280;7731;50.720;6.912;2022-08-20T08:50:33;100196.31;;;24.97;61.88
17072;BME280;7731;50.720;6.912;2022-08-20T08:53:26;100191.25;;;26.82;54.96
17072;BME280;7731;50.720;6.912;2022-08-20T08:56:04;100199.56;;;26.18;56.51
17072;BME280;7731;50.720;6.912;2022-08-20T08:58:36;100201.50;;;25.30;59.22
17072;BME280;7731;50.720;6.912;2022-08-20T09:01:11;100200.47;;;25.71;58.66
17072;BME280;7731;50.720;6.912;2022-08-20T09:04:03;100187.34;;;28.96;47.56
17072;BME280;7731;50.720;6.912;2022-08-20T09:06:35;100190.91;;;28.25;47.79
17072;BME280;7731;50.720;6.912;2022-08-20T09:09:16;100207.97;;;25.59;57.45
17072;BME280;7731;50.720;6.912;2022-08-20T09:11:54;100212.78;;;26.33;57.61
17072;BME280;7731;50.720;6.912;2022-08-20T09:14:27;100200.06;;;27.04;52.17
17072;BME280;7731;50.720;6.912;2022-08-20T09:16:57;100201.22;;;28.70;49.34
17072;BME280;7731;50.720;6.912;2022-08-20T09:19:28;100210.28;;;27.37;53.38
17072;BME280;7731;50.720;6.912;2022-08-20T09:22:07;100209.47;;;26.54;54.02
17072;BME280;7731;50.720;6.912;2022-08-20T09:24:38;100222.88;;;26.44;55.95
17072;BME280;7731;50.720;6.912;2022-08-20T09:27:13;100215.84;;;27.79;52.27
17072;BME280;7731;50.720;6.912;2022-08-20T09:29:44;100209.25;;;28.83;46.10
17072;BME280;7731;50.720;6.912;2022-08-20T09:32:19;100213.09;;;27.36;52.22
17072;BME280;7731;50.720;6.912;2022-08-20T09:34:54;100207.50;;;27.60;50.29
17072;BME280;7731;50.720;6.912;2022-08-20T09:37:28;100198.63;;;28.76;45.65
17072;BME280;7731;50.720;6.912;2022-08-20T09:40:15;100202.13;;;28.55;47.26
17072;BME280;7731;50.720;6.912;2022-08-20T09:42:50;100215.44;;;26.71;54.13
17072;BME280;7731;50.720;6.912;2022-08-20T09:45:21;100223.56;;;25.04;59.51
17072;BME280;7731;50.720;6.912;2022-08-20T09:47:51;100220.16;;;26.14;56.15
17072;BME280;7731;50.720;6.912;2022-08-20T09:50:26;100212.81;;;29.38;45.48
17072;BME280;7731;50.720;6.912;2022-08-20T09:53:00;100212.59;;;28.98;46.33
17072;BME280;7731;50.720;6.912;2022-08-20T09:55:34;100211.81;;;29.04;46.04
17072;BME280;7731;50.720;6.912;2022-08-20T09:58:19;100215.25;;;28.98;45.32
17072;BME280;7731;50.720;6.912;2022-08-20T10:00:50;100211.97;;;29.93;43.72
17072;BME280;7731;50.720;6.912;2022-08-20T10:03:23;100212.72;;;27.09;49.03
17072;BME280;7731;50.720;6.912;2022-08-20T10:05:53;100209.28;;;27.75;48.97
17072;BME280;7731;50.720;6.912;2022-08-20T10:08:23;100215.94;;;26.28;53.27
17072;BME280;7731;50.720;6.912;2022-08-20T10:10:55;100218.47;;;25.11;58.19
17072;BME280;7731;50.720;6.912;2022-08-20T10:13:27;100216.22;;;25.56;58.62
17072;BME280;7731;50.720;6.912;2022-08-20T10:15:59;100217.81;;;25.65;57.39
17072;BME280;7731;50.720;6.912;2022-08-20T10:18:29;100220.63;;;26.18;54.27
17072;BME280;7731;50.720;6.912;2022-08-20T10:21:02;100222.78;;;25.52;56.93
17072;BME280;7731;50.720;6.912;2022-08-20T10:23:32;100227.72;;;24.41;60.70
17072;BME280;7731;50.720;6.912;2022-08-20T10:26:03;100225.13;;;23.74;65.19
17072;BME280;7731;50.720;6.912;2022-08-20T10:28:37;100225.28;;;24.39;63.52
17072;BME280;7731;50.720;6.912;2022-08-20T10:31:10;100232.47;;;24.29;63.53
17072;BME280;7731;50.720;6.912;2022-08-20T10:33:41;100222.47;;;24.16;63.33
17072;BME280;7731;50.720;6.912;2022-08-20T10:36:15;100220.31;;;25.81;58.32
17072;BME280;7731;50.720;6.912;2022-08-20T10:38:46;100218.19;;;26.54;54.18
17072;BME280;7731;50.720;6.912;2022-08-20T10:41:17;100223.03;;;26.66;52.41
17072;BME280;7731;50.720;6.912;2022-08-20T10:43:51;100222.06;;;26.67;51.31
17072;BME280;7731;50.720;6.912;2022-08-20T10:46:21;100234.25;;;25.90;54.86
17072;BME280;7731;50.720;6.912;2022-08-20T10:48:51;100230.03;;;24.85;59.42
17072;BME280;7731;50.720;6.912;2022-08-20T10:51:24;100220.03;;;25.45;56.04
17072;BME280;7731;50.720;6.912;2022-08-20T10:54:00;100227.34;;;26.20;55.17
17072;BME280;7731;50.720;6.912;2022-08-20T10:56:38;100220.09;;;27.43;50.07
17072;BME280;7731;50.720;6.912;2022-08-20T10:59:11;100214.19;;;28.43;48.06
17072;BME280;7731;50.720;6.912;2022-08-20T11:01:41;100225.16;;;28.40;46.93
17072;BME280;7731;50.720;6.912;2022-08-20T11:04:11;100224.50;;;27.73;48.25
17072;BME280;7731;50.720;6.912;2022-08-20T11:06:41;100228.94;;;27.36;50.03
17072;BME280;7731;50.720;6.912;2022-08-20T11:09:12;100225.06;;;27.53;47.83
17072;BME280;7731;50.720;6.912;2022-08-20T11:11:42;100221.72;;;26.85;51.70
17072;BME280;7731;50.720;6.912;2022-08-20T11:14:15;100244.13;;;25.57;54.93
17072;BME280;7731;50.720;6.912;2022-08-20T11:16:45;100227.50;;;25.96;53.91
17072;BME280;7731;50.720;6.912;2022-08-20T11:19:15;100236.97;;;25.42;55.23
17072;BME280;7731;50.720;6.912;2022-08-20T11:21:46;100232.97;;;25.86;55.47
17072;BME280;7731;50.720;6.912;2022-08-20T11:24:16;100224.06;;;26.18;54.39
17072;BME280;7731;50.720;6.912;2022-08-20T11:26:47;100234.59;;;26.18;52.99
17072;BME280;7731;50.720;6.912;2022-08-20T11:29:22;100235.25;;;26.44;53.06
17072;BME280;7731;50.720;6.912;2022-08-20T11:31:52;100242.41;;;25.41;56.73
17072;BME280;7731;50.720;6.912;2022-08-20T11:34:22;100234.22;;;25.11;57.99
17072;BME280;7731;50.720;6.912;2022-08-20T11:36:53;100234.22;;;25.67;56.22
17072;BME280;7731;50.720;6.912;2022-08-20T11:39:23;100237.50;;;25.69;56.22
17072;BME280;7731;50.720;6.912;2022-08-20T11:41:54;100238.28;;;26.09;53.84
17072;BME280;7731;50.720;6.912;2022-08-20T11:44:26;100236.00;;;26.06;54.62
17072;BME280;7731;50.720;6.912;2022-08-20T11:46:59;100249.66;;;26.33;51.36
17072;BME280;7731;50.720;6.912;2022-08-20T11:49:31;100241.81;;;25.62;53.54
17072;BME280;7731;50.720;6.912;2022-08-20T11:52:02;100239.28;;;26.31;51.40
17072;BME280;7731;50.720;6.912;2022-08-20T11:54:33;100251.19;;;25.96;53.15
17072;BME280;7731;50.720;6.912;2022-08-20T11:57:07;100244.72;;;26.30;50.94
17072;BME280;7731;50.720;6.912;2022-08-20T11:59:52;100229.00;;;27.42;48.58
17072;BME280;7731;50.720;6.912;2022-08-20T12:02:23;100239.41;;;26.38;51.37
17072;BME280;7731;50.720;6.912;2022-08-20T12:04:55;100242.56;;;25.79;53.75
17072;BME280;7731;50.720;6.912;2022-08-20T12:07:28;100236.47;;;26.33;52.25
17072;BME280;7731;50.720;6.912;2022-08-20T12:09:58;100247.00;;;25.78;53.75
17072;BME280;7731;50.720;6.912;2022-08-20T12:12:29;100245.94;;;25.88;52.44
17072;BME280;7731;50.720;6.912;2022-08-20T12:15:02;100243.16;;;25.58;54.33
17072;BME280;7731;50.720;6.912;2022-08-20T12:17:34;100239.75;;;24.68;56.88
17072;BME280;7731;50.720;6.912;2022-08-20T12:20:10;100240.06;;;24.73;57.16
17072;BME280;7731;50.720;6.912;2022-08-20T12:22:41;100236.44;;;24.83;57.63
17072;BME280;7731;50.720;6.912;2022-08-20T12:25:12;100243.94;;;25.66;55.23
17072;BME280;7731;50.720;6.912;2022-08-20T12:27:42;100243.25;;;25.73;53.79
17072;BME280;7731;50.720;6.912;2022-08-20T12:30:18;100245.31;;;24.40;55.81
17072;BME280;7731;50.720;6.912;2022-08-20T12:32:49;100244.34;;;24.58;56.24
17072;BME280;7731;50.720;6.912;2022-08-20T12:35:21;100248.22;;;24.29;55.43
17072;BME280;7731;50.720;6.912;2022-08-20T12:37:52;100246.56;;;24.12;55.72
17072;BME280;7731;50.720;6.912;2022-08-20T12:40:26;100237.38;;;23.99;57.98
17072;BME280;7731;50.720;6.912;2022-08-20T12:42:59;100237.78;;;23.78;58.76
17072;BME280;7731;50.720;6.912;2022-08-20T12:45:32;100231.31;;;24.40;57.09
17072;BME280;7731;50.720;6.912;2022-08-20T12:48:07;100237.78;;;24.62;53.94
17072;BME280;7731;50.720;6.912;2022-08-20T12:50:40;100226.25;;;24.30;53.82
17072;BME280;7731;50.720;6.912;2022-08-20T12:53:11;100233.50;;;24.61;50.76
17072;BME280;7731;50.720;6.912;2022-08-20T12:55:42;100229.84;;;24.95;49.74
17072;BME280;7731;50.720;6.912;2022-08-20T12:58:12;100231.66;;;24.86;51.04
17072;BME280;7731;50.720;6.912;2022-08-20T13:00:46;100230.50;;;25.05;51.95
17072;BME280;7731;50.720;6.912;2022-08-20T13:03:18;100226.00;;;25.22;53.41
17072;BME280;7731;50.720;6.912;2022-08-20T13:05:49;100229.09;;;25.74;49.69
17072;BME280;7731;50.720;6.912;2022-08-20T13:08:19;100215.06;;;26.13;41.00
17072;BME280;7731;50.720;6.912;2022-08-20T13:10:50;100218.44;;;25.98;43.97
17072;BME280;7731;50.720;6.912;2022-08-20T13:13:20;100219.69;;;25.48;47.80
17072;BME280;7731;50.720;6.912;2022-08-20T13:15:53;100219.00;;;24.98;48.85
17072;BME280;7731;50.720;6.912;2022-08-20T13:18:23;100217.94;;;25.24;47.47
17072;BME280;7731;50.720;6.912;2022-08-20T13:20:53;100205.88;;;25.46;45.20
17072;BME280;7731;50.720;6.912;2022-08-20T13:23:23;100217.13;;;25.63;43.38
17072;BME280;7731;50.720;6.912;2022-08-20T13:25:54;100210.94;;;25.56;42.19
17072;BME280;7731;50.720;6.912;2022-08-20T13:28:25;100203.16;;;25.62;38.81
17072;BME280;7731;50.720;6.912;2022-08-20T13:30:59;100212.06;;;25.84;39.21
17072;BME280;7731;50.720;6.912;2022-08-20T13:33:30;100207.88;;;25.44;40.68